• Join FlightAware (Why Join?)
  • Login
  • US Flag 
05:05AM EDT


 

Airport Tracker/Info


-or-


 

Live Flight TrackerFlight Track Log ✈ SWA1729 ✈ 23-Aug-2014 ✈ KLAS - KLAX

Flight Track Log - Related Links

Times and Time Zones

All times are in EDT time to prevent confusion due to time zone crossing. See the SWA1729 flight status page for this flight to view local times or setup timezone preferences in your user account.

Time Position Orientation Groundspeed Altitude Reporting Facility
EDT Latitude Longitude Course Direction KTS MPH feet Rate Location/Type
11:02PM 36.0930 -115.2372 281° West  Level FlightAware Approximate
11:03PM 36.0975 -115.2846 202° Southwest  Level FlightAware Approximate
11:04PM 36.0606 -115.3031 202° Southwest  Level FlightAware Approximate
11:05PM 36.0236 -115.3216 202° Southwest  Level FlightAware Approximate
11:06PM 35.9866 -115.3400 202° Southwest  Level FlightAware Approximate
11:07PM 35.9496 -115.3585 202° Southwest  Level FlightAware Approximate
11:08PM 35.9126 -115.3770 202° Southwest  Level FlightAware Approximate
11:09PM 35.8752 -115.3727 161° South  Level FlightAware Approximate
11:10PM 35.8375 -115.3565 161° South  Level FlightAware Approximate
11:11PM 35.7998 -115.3403 161° South  Level FlightAware Approximate
11:12PM 35.7621 -115.3242 161° South  Level FlightAware Approximate
11:13PM 35.7244 -115.3080 161° South  Level FlightAware Approximate
11:14PM 35.6867 -115.2919 161° South  Level FlightAware Approximate
11:15PM 35.6522 -115.2978 219° Southwest  Level FlightAware Approximate
11:16PM 35.6335 -115.3373 225° Southwest  Level FlightAware Approximate
11:17PM 35.6055 -115.3723 225° Southwest  Level FlightAware Approximate
11:18PM 35.5769 -115.4064 219° Southwest  Level FlightAware Approximate
11:19PM 35.5467 -115.4383 231° Southwest  Level FlightAware Approximate
11:20PM 35.5214 -115.4762 231° Southwest  Level FlightAware Approximate
11:21PM 35.4961 -115.5141 231° Southwest  Level FlightAware Approximate
11:22PM 35.4700 -115.5511 227° Southwest  Level FlightAware Approximate
11:23PM 35.4430 -115.5872 227° Southwest  Level FlightAware Approximate
11:24PM 35.4199 -115.6269 238° Southwest  Level FlightAware Approximate
11:25PM 35.3986 -115.6681 219° Southwest  Level FlightAware Approximate
11:26PM 35.3677 -115.6990 219° Southwest  Level FlightAware Approximate
11:27PM 35.3368 -115.7299 219° Southwest  Level FlightAware Approximate
11:28PM 35.3058 -115.7608 219° Southwest  Level FlightAware Approximate
11:29PM 35.2781 -115.7959 227° Southwest  Level FlightAware Approximate
11:30PM 35.2511 -115.8319 227° Southwest  Level FlightAware Approximate
11:31PM 35.2241 -115.8679 227° Southwest  Level FlightAware Approximate
11:32PM 35.1971 -115.9038 227° Southwest  Level FlightAware Approximate
11:33PM 35.1701 -115.9398 227° Southwest  Level FlightAware Approximate
11:34PM 35.1431 -115.9756 227° Southwest  Level FlightAware Approximate
11:35PM 35.1161 -116.0115 227° Southwest  Level FlightAware Approximate
11:36PM 35.0890 -116.0474 227° Southwest  Level FlightAware Approximate
11:37PM 35.0620 -116.0832 227° Southwest  Level FlightAware Approximate
11:38PM 35.0349 -116.1190 227° Southwest  Level FlightAware Approximate
11:39PM 35.0078 -116.1548 227° Southwest  Level FlightAware Approximate
11:40PM 34.9807 -116.1906 227° Southwest  Level FlightAware Approximate
11:41PM 34.9536 -116.2263 227° Southwest  Level FlightAware Approximate
11:42PM 34.9265 -116.2620 227° Southwest  Level FlightAware Approximate
11:43PM 34.8994 -116.2977 227° Southwest  Level FlightAware Approximate
11:44PM 34.8723 -116.3334 227° Southwest  Level FlightAware Approximate
11:45PM 34.8451 -116.3690 227° Southwest  Level FlightAware Approximate
11:46PM 34.8180 -116.4046 227° Southwest  Level FlightAware Approximate
11:47PM 34.7908 -116.4402 227° Southwest  Level FlightAware Approximate
11:48PM 34.7610 -116.4724 219° Southwest  Level FlightAware Approximate
11:49PM 34.6947 -116.5387 219° Southwest  Level FlightAware Approximate
11:50PM 34.6285 -116.6049 219° Southwest  Level FlightAware Approximate
11:51PM 34.5622 -116.6711 220° Southwest  Level FlightAware Approximate
11:52PM 34.4960 -116.7373 220° Southwest  Level FlightAware Approximate
11:53PM 34.4271 -116.7986 209° Southwest  Level FlightAware Approximate
11:54PM 34.3577 -116.8590 220° Southwest  Level FlightAware Approximate
11:55PM 34.2901 -116.9228 215° Southwest  Level FlightAware Approximate
11:56PM 34.2201 -116.9828 215° Southwest  Level FlightAware Approximate
11:56PM 36.0758 -115.1764 270° West 237 273 2,900  Level Los Angeles Center
11:57PM 34.1529 -117.0471 220° Southwest  Level FlightAware Approximate
11:57PM 36.0764 -115.1894 273° West 208 239 3,500  Level Los Angeles Center
11:58PM 34.0983 -117.1201 239° Southwest  Level FlightAware Approximate
11:58PM 36.0636 -115.2522 256° West 221 254 5,700  Level Los Angeles Center
11:59PM 34.0540 -117.2088 239° Southwest  Level FlightAware Approximate
11:59PM 35.9928 -115.2933 205° Southwest 272 313 7,900  Level Los Angeles Center
12:00AM 34.0333 -117.3015 270° West  Level FlightAware Approximate
12:00AM 35.9142 -115.3092 189° South 286 329 10,500  Level Los Angeles Center
12:01AM 34.0266 -117.4035 248° West  Level FlightAware Approximate
12:01AM 35.8208 -115.3131 182° South 337 388 12,200  Level Los Angeles Center
12:02AM 34.0167 -117.5046 270° West  Level FlightAware Approximate
12:02AM 35.7206 -115.3000 174° South 363 418 14,500  Level Los Angeles Center
12:03AM 35.6361 -115.3503 206° Southwest 360 414 16,800 1,980 Climbing Los Angeles Center
12:04AM 35.5658 -115.4436 227° Southwest 368 423 18,600 1,920 Climbing Los Angeles Center
12:05AM 35.4875 -115.5339 223° Southwest 381 438 20,800 1,920 Climbing Los Angeles Center
12:06AM 35.4114 -115.6211 223° Southwest 381 438 22,600 1,620 Climbing Los Angeles Center
12:07AM 35.3331 -115.7142 224° Southwest 390 449 24,200 1,620 Climbing Los Angeles Center
12:08AM 35.2528 -115.8081 224° Southwest 393 452 25,900 1,500 Climbing Los Angeles Center
12:09AM 35.1697 -115.9047 224° Southwest 406 467 27,300 1,020 Climbing Los Angeles Center
12:10AM 35.0842 -116.0022 223° Southwest 417 480 28,000 300 Climbing Los Angeles Center
12:11AM 34.9975 -116.1025 223° Southwest 423 487 28,000  Level Los Angeles Center
12:12AM 34.8892 -116.2258 223° Southwest 436 502 28,000  Level Los Angeles Center
12:13AM 34.7989 -116.3250 222° Southwest 439 505 28,000  Level Los Angeles Center
12:14AM 34.7192 -116.4183 224° Southwest 420 483 28,000  Level Los Angeles Center
12:15AM 34.6375 -116.5117 223° Southwest 404 465 28,000  Level Los Angeles Center
12:16AM 34.5556 -116.6050 223° Southwest 404 465 28,000  Level Los Angeles Center
12:17AM 34.4731 -116.6981 223° Southwest 404 465 28,000 -600 Level Los Angeles Center
12:18AM 34.3903 -116.7900 223° Southwest 402 463 26,900 -1,800 Descending Los Angeles Center
12:19AM 34.3061 -116.8842 223° Southwest 408 470 24,400 -2,580 Descending Los Angeles Center
12:20AM 34.2169 -116.9858 223° Southwest 401 461 21,700 -2,040 Descending Los Angeles Center
12:21AM 34.1700 -117.0906 242° Southwest 372 428 20,300 -1,380 Descending Los Angeles Center
12:22AM 34.1983 -117.1833 290° West 340 391 19,000 -660 Descending Los Angeles Center
12:23AM 34.1875 -117.2856 263° West 344 396 19,000 -600 Level Los Angeles Center
12:24AM 34.0944 -117.3583 213° Southwest 334 384 17,800 -1,260 Descending Los Angeles Center
12:25AM 34.0500 -117.3833 205° Southwest 329 379 17,100 -1,500 Descending Southern California TRACON
12:26AM 33.9833 -117.4500 220° Southwest 327 376 15,500 -1,680 Descending Southern California TRACON
12:27AM 33.9667 -117.5333 256° West 312 359 13,800 -1,800 Descending Southern California TRACON
12:28AM 33.9833 -117.6333 281° West 329 379 12,000 -1,620 Descending Southern California TRACON
12:29AM 33.9994 -117.7628 279° West 280 322 9,800 -1,620 Descending Los Angeles Center
12:30AM 33.9911 -117.8544 264° West 274 315 7,900 -1,680 Descending Los Angeles Center
12:31AM 33.9839 -117.9450 265° West 274 315 6,500 -1,020 Descending Los Angeles Center
12:32AM 33.9903 -118.0283 275° West 258 297 5,900 -480 Descending Los Angeles Center
12:33AM 33.9822 -118.1058 263° West 239 275 5,600 -660 Descending Los Angeles Center
12:34AM 33.9753 -118.1736 263° West 214 246 4,600 -1,080 Descending Los Angeles Center
12:35AM 33.9692 -118.2369 263° West 199 229 3,500 -1,380 Descending Los Angeles Center
12:36AM 33.9628 -118.3019 263° West 177 204 1,800 -1,260 Descending Los Angeles Center
12:37AM 33.9578 -118.3528 263° West 164 189 1,000 -780 Descending Los Angeles Center
12:38AM 33.9533 -118.3986 263° West 150 173 300 -720 Descending Los Angeles Center
12:40AM 33.9333 -118.4000 259° West  Level FlightAware Approximate